Time;durP1;ratioP1;P1;durP2;ratioP2;P2;SDS_P1;SDS_P2;PMS_P1;PMS_P2;Temp;Humidity;BMP_temperature;BMP_pressure;BME280_temperature;BME280_humidity;BME280_pressure;Samples;Min_cycle;Max_cycle;Signal;HPM_P1;HPM_P2
2022/11/01 00:00:00;;;;;;;18.20;8.77;;;;;;;21.16;65.84;100211.09;5051524;28;20179;-64
2022/11/01 00:02:25;;;;;;;8.00;6.30;;;;;;;21.17;65.62;100222.19;5051330;28;20572;-65
2022/11/01 00:04:51;;;;;;;10.90;7.07;;;;;;;21.20;65.84;100234.91;5069107;28;20202;-64
2022/11/01 00:07:16;;;;;;;10.00;6.63;;;;;;;21.17;65.70;100230.00;5054385;28;20224;-66
2022/11/01 00:09:41;;;;;;;9.73;7.20;;;;;;;21.21;65.85;100227.94;5069933;28;20182;-65
2022/11/01 00:12:07;;;;;;;10.97;7.27;;;;;;;21.21;66.15;100228.78;5066258;28;20183;-64
2022/11/01 00:14:32;;;;;;;13.27;6.30;;;;;;;21.35;65.79;100237.47;5051573;28;20178;-64
2022/11/01 00:16:58;;;;;;;9.90;6.27;;;;;;;21.31;66.40;100251.00;5034286;28;20289;-64
2022/11/01 00:19:23;;;;;;;12.20;6.60;;;;;;;21.28;66.62;100248.91;5035297;28;20163;-64
2022/11/01 00:21:49;;;;;;;11.57;6.47;;;;;;;21.32;66.30;100243.22;5034386;28;20174;-64
2022/11/01 00:24:14;;;;;;;13.03;6.50;;;;;;;21.26;66.45;100250.53;5049956;28;20236;-64
2022/11/01 00:26:40;;;;;;;9.07;6.00;;;;;;;21.25;66.38;100228.78;5068915;28;20201;-64
2022/11/01 00:29:05;;;;;;;11.40;7.00;;;;;;;21.28;66.16;100242.38;5011929;28;20194;-65
2022/11/01 00:31:31;;;;;;;11.00;6.27;;;;;;;21.19;66.14;100239.03;5069357;28;20163;-65
2022/11/01 00:33:56;;;;;;;10.63;6.20;;;;;;;21.17;66.20;100245.16;5052596;28;20163;-65
2022/11/01 00:36:22;;;;;;;11.70;6.57;;;;;;;21.17;66.25;100236.53;5069992;28;20190;-65
2022/11/01 00:38:51;;;;;;;13.83;6.87;;;;;;;21.14;66.25;100231.63;5051902;28;20229;-65
2022/11/01 00:41:18;;;;;;;9.33;6.50;;;;;;;21.12;66.08;100234.03;5052247;28;20225;-65
2022/11/01 00:43:44;;;;;;;9.43;5.93;;;;;;;21.07;66.10;100240.16;5070299;28;20478;-65
2022/11/01 00:46:09;;;;;;;8.50;5.93;;;;;;;21.07;66.24;100237.28;5070257;28;20867;-65
2022/11/01 00:48:35;;;;;;;11.97;7.50;;;;;;;21.06;66.58;100229.91;5035726;28;20187;-65
2022/11/01 00:51:00;;;;;;;9.67;6.93;;;;;;;21.02;66.47;100220.44;5052420;28;20223;-65
2022/11/01 00:53:25;;;;;;;8.30;6.30;;;;;;;21.04;66.31;100222.94;5052607;28;20179;-65
2022/11/01 00:55:51;;;;;;;11.67;6.27;;;;;;;21.00;66.68;100214.28;5070328;28;20306;-65
2022/11/01 00:58:16;;;;;;;11.07;6.53;;;;;;;20.99;66.80;100218.41;5070627;28;20199;-65
2022/11/01 01:00:42;;;;;;;8.47;5.87;;;;;;;20.98;66.88;100207.31;5052186;28;20258;-65
2022/11/01 01:03:07;;;;;;;10.87;6.27;;;;;;;20.98;66.48;100210.97;5073969;28;20178;-66
2022/11/01 01:05:34;;;;;;;10.10;6.43;;;;;;;20.96;67.16;100216.31;5072176;28;20198;-65
2022/11/01 01:07:59;;;;;;;8.87;5.57;;;;;;;20.96;66.92;100218.34;5039853;28;20178;-65
2022/11/01 01:10:25;;;;;;;9.73;6.00;;;;;;;20.96;67.14;100222.06;5093721;28;20413;-65
2022/11/01 01:12:50;;;;;;;7.37;5.60;;;;;;;20.94;67.16;100215.91;5073705;28;20178;-65
2022/11/01 01:15:15;;;;;;;9.83;6.97;;;;;;;20.94;66.76;100221.63;5038947;28;20199;-65
2022/11/01 01:17:41;;;;;;;8.53;6.00;;;;;;;20.94;66.84;100215.91;5073863;28;20198;-65
2022/11/01 01:20:07;;;;;;;10.03;5.70;;;;;;;20.94;67.28;100220.81;5056015;28;20194;-65
2022/11/01 01:22:32;;;;;;;9.90;6.23;;;;;;;20.93;66.92;100233.50;5055869;28;20175;-66
2022/11/01 01:24:58;;;;;;;13.80;5.77;;;;;;;20.92;66.96;100221.19;5073627;28;20428;-65
2022/11/01 01:27:23;;;;;;;8.77;5.77;;;;;;;20.91;67.47;100222.44;5039139;28;20191;-65
2022/11/01 01:29:50;;;;;;;8.37;5.27;;;;;;;20.91;67.09;100230.19;5038808;28;20179;-65
2022/11/01 01:32:20;;;;;;;9.60;6.53;;;;;;;20.90;67.08;100214.22;5038930;28;20277;-65
2022/11/01 01:34:45;;;;;;;9.40;6.10;;;;;;;20.90;67.04;100217.91;5055405;28;20429;-65
2022/11/01 01:37:11;;;;;;;12.83;6.43;;;;;;;20.90;67.15;100225.69;5038939;28;20424;-65
2022/11/01 01:39:36;;;;;;;9.30;6.13;;;;;;;20.91;67.41;100215.84;5073656;28;20579;-66
2022/11/01 01:42:04;;;;;;;8.63;6.03;;;;;;;20.89;67.14;100224.00;5073484;28;20892;-65
2022/11/01 01:44:45;;;;;;;7.73;5.20;;;;;;;20.90;67.50;100220.78;5038851;28;20187;-65
2022/11/01 01:47:13;;;;;;;7.73;5.57;;;;;;;20.88;67.01;100243.25;5073459;28;20420;-65
2022/11/01 01:49:39;;;;;;;10.10;5.97;;;;;;;20.90;67.00;100254.38;5055502;28;20402;-65
2022/11/01 01:52:04;;;;;;;12.17;5.80;;;;;;;20.87;66.90;100233.00;5038548;28;20515;-65
2022/11/01 01:54:30;;;;;;;9.07;6.07;;;;;;;20.87;67.17;100233.00;5073197;28;20213;-65
2022/11/01 01:56:56;;;;;;;8.23;5.37;;;;;;;20.86;66.85;100225.63;5055064;28;20210;-65
2022/11/01 01:59:21;;;;;;;8.90;5.77;;;;;;;20.87;66.99;100240.81;5054930;28;20417;-65
2022/11/01 02:01:46;;;;;;;9.90;5.60;;;;;;;20.85;67.05;100244.09;5073247;28;20159;-67
2022/11/01 02:04:19;;;;;;;6.73;4.97;;;;;;;20.87;67.41;100244.50;5060863;28;20249;-67
2022/11/01 02:06:45;;;;;;;9.17;5.87;;;;;;;20.86;67.37;100239.16;5058849;28;20323;-67
2022/11/01 02:09:11;;;;;;;8.67;5.43;;;;;;;20.84;67.02;100245.31;5058403;28;20428;-68
2022/11/01 02:11:37;;;;;;;7.13;5.33;;;;;;;20.84;67.57;100242.44;5058194;28;20265;-67
2022/11/01 02:14:02;;;;;;;7.77;5.27;;;;;;;20.85;67.17;100223.16;5056321;28;20421;-68
2022/11/01 02:16:34;;;;;;;7.73;5.80;;;;;;;20.84;67.20;100227.25;5020688;28;20199;-68
2022/11/01 02:19:17;;;;;;;8.50;5.90;;;;;;;20.82;67.11;100230.53;5072704;28;20175;-68
2022/11/01 02:22:00;;;;;;;8.03;4.90;;;;;;;20.81;67.70;100216.56;5072105;28;20393;-67
2022/11/01 02:24:34;;;;;;;7.00;5.50;;;;;;;20.82;67.64;100221.91;5072828;28;20398;-67
2022/11/01 02:27:13;;;;;;;6.90;5.33;;;;;;;20.81;67.21;100223.13;5055179;28;20413;-68
2022/11/01 02:30:09;;;;;;;7.70;5.47;;;;;;;20.84;67.38;100235.88;5038740;28;20460;-68
2022/11/01 02:32:52;;;;;;;6.53;4.87;;;;;;;20.80;67.71;100238.72;5072124;28;20401;-67
2022/11/01 02:35:49;;;;;;;9.93;5.60;;;;;;;20.80;67.72;100235.84;5072572;28;20555;-67
2022/11/01 02:38:46;;;;;;;5.97;4.70;;;;;;;20.81;67.58;100230.91;5072187;28;20435;-68
2022/11/01 02:41:26;;;;;;;7.53;5.17;;;;;;;20.79;67.33;100245.69;5072400;28;20574;-68
2022/11/01 02:44:02;;;;;;;7.40;5.40;;;;;;;20.78;67.67;100252.63;5037875;28;20907;-68
2022/11/01 02:49:14;;;;;;;7.40;4.50;;;;;;;20.80;67.71;100255.09;5056758;28;20493;-68
2022/11/01 02:51:39;;;;;;;8.40;5.70;;;;;;;20.81;67.41;100257.56;5054045;28;20477;-68
2022/11/01 02:54:06;;;;;;;8.50;4.83;;;;;;;20.79;67.44;100257.16;5054306;28;20421;-68
2022/11/01 02:56:32;;;;;;;7.80;5.27;;;;;;;20.79;67.34;100244.84;5037315;28;20210;-68
2022/11/01 02:58:57;;;;;;;8.50;5.00;;;;;;;20.78;67.44;100244.00;5053906;28;20478;-68
2022/11/01 03:01:23;;;;;;;6.83;4.73;;;;;;;20.79;67.50;100254.28;5071851;28;20159;-67
2022/11/01 03:03:49;;;;;;;6.93;4.93;;;;;;;20.77;67.40;100253.84;5040905;28;20198;-67
2022/11/01 03:06:17;;;;;;;6.83;4.43;;;;;;;20.77;67.48;100256.72;5037360;28;20463;-67
2022/11/01 03:08:45;;;;;;;7.47;4.83;;;;;;;20.77;67.39;100255.91;5053722;28;20175;-67
2022/11/01 03:11:10;;;;;;;10.17;5.13;;;;;;;20.76;67.72;100259.97;5037366;28;20412;-68
2022/11/01 03:13:45;;;;;;;7.30;5.00;;;;;;;20.75;67.61;100264.91;5071741;28;20429;-68
2022/11/01 03:16:31;;;;;;;5.70;4.30;;;;;;;20.77;67.43;100267.38;5053846;28;20190;-68
2022/11/01 03:19:11;;;;;;;5.93;4.07;;;;;;;20.76;67.35;100271.44;5053095;28;20442;-67
2022/11/01 03:21:40;;;;;;;6.60;4.70;;;;;;;20.78;67.39;100280.50;5037807;28;20483;-67
2022/11/01 03:24:14;;;;;;;6.20;4.60;;;;;;;20.78;67.31;100301.41;5071517;28;20463;-68
2022/11/01 03:26:40;;;;;;;7.73;4.87;;;;;;;20.76;67.28;100298.09;5071476;28;20884;-68
2022/11/01 03:29:06;;;;;;;6.90;4.93;;;;;;;20.76;67.54;100309.59;5036907;28;20410;-68
2022/11/01 03:31:32;;;;;;;6.10;4.40;;;;;;;20.75;67.53;100309.97;5053335;28;20171;-67
2022/11/01 03:34:02;;;;;;;9.10;5.00;;;;;;;20.74;67.35;100314.91;5053071;28;20428;-68
2022/11/01 03:36:33;;;;;;;6.73;4.20;;;;;;;20.76;67.76;100323.94;5036988;28;20449;-68
2022/11/01 03:39:02;;;;;;;6.50;4.67;;;;;;;20.76;67.62;100329.66;5036779;28;20463;-67
2022/11/01 03:41:28;;;;;;;7.87;5.27;;;;;;;20.76;67.48;100348.91;5037108;28;20492;-68
2022/11/01 03:43:53;;;;;;;6.83;4.50;;;;;;;20.73;67.72;100359.13;5053232;28;20528;-68
2022/11/01 03:46:19;;;;;;;6.80;5.07;;;;;;;20.71;67.42;100364.47;5053314;28;20236;-68
2022/11/01 03:48:44;;;;;;;5.03;4.40;;;;;;;20.72;67.66;100376.78;5020012;28;20182;-68
2022/11/01 03:51:10;;;;;;;6.00;4.47;;;;;;;20.73;67.58;100376.34;5053225;28;20223;-68
2022/11/01 03:53:35;;;;;;;6.87;4.80;;;;;;;20.71;67.55;100361.59;5036666;28;20197;-67
2022/11/01 03:56:01;;;;;;;7.57;4.67;;;;;;;20.73;67.52;100358.34;5036413;28;20245;-67
2022/11/01 03:58:40;;;;;;;7.67;4.50;;;;;;;20.72;67.96;100366.09;5052649;28;20228;-68
2022/11/01 04:01:07;;;;;;;5.00;3.80;;;;;;;20.71;67.74;100352.16;5040310;28;20166;-67
2022/11/01 04:03:32;;;;;;;6.13;4.63;;;;;;;20.70;67.45;100359.94;5043542;28;20420;-68
2022/11/01 04:05:57;;;;;;;6.93;5.17;;;;;;;20.70;67.36;100347.63;5073171;28;20413;-67
2022/11/01 04:08:23;;;;;;;6.27;3.97;;;;;;;20.71;67.82;100346.41;5070530;28;20277;-68
2022/11/01 04:10:48;;;;;;;6.27;4.30;;;;;;;20.71;67.86;100347.25;5053051;28;20159;-67
2022/11/01 04:13:14;;;;;;;6.30;4.20;;;;;;;20.73;67.57;100353.41;5070418;28;20235;-68
2022/11/01 04:21:22;;;;;;;6.67;4.20;;;;;;;20.70;67.70;100367.72;5055501;28;20769;-67
2022/11/01 04:23:47;;;;;;;6.50;4.70;;;;;;;20.71;67.51;100375.09;5053088;28;20836;-67
2022/11/01 04:26:18;;;;;;;6.33;4.50;;;;;;;20.70;67.70;100385.78;5070600;28;20466;-68
2022/11/01 04:28:55;;;;;;;6.00;4.30;;;;;;;20.70;68.02;100387.81;5052814;28;20187;-67
2022/11/01 04:31:30;;;;;;;8.00;5.10;;;;;;;20.69;67.48;100397.63;5054655;28;20405;-67
2022/11/01 04:33:56;;;;;;;5.50;4.00;;;;;;;20.71;67.84;100398.06;5070724;28;20470;-67
2022/11/01 04:36:22;;;;;;;6.77;4.10;;;;;;;20.71;67.66;100401.75;5035763;28;20858;-67
2022/11/01 04:38:51;;;;;;;6.17;4.33;;;;;;;20.69;67.89;100398.47;5070705;28;20425;-68
2022/11/01 04:41:18;;;;;;;7.43;4.60;;;;;;;20.71;67.87;100400.91;5052550;28;20179;-67
2022/11/01 04:43:44;;;;;;;6.30;4.53;;;;;;;20.69;67.59;100409.94;5071771;28;20479;-67
2022/11/01 04:46:09;;;;;;;12.80;3.83;;;;;;;20.70;67.42;100400.13;5056786;28;20421;-68
2022/11/01 04:48:35;;;;;;;5.77;4.40;;;;;;;20.69;67.59;100409.94;5074595;28;20405;-67
2022/11/01 04:51:01;;;;;;;6.20;4.33;;;;;;;20.68;67.61;100378.78;5074336;28;20223;-68
2022/11/01 04:53:28;;;;;;;6.90;4.30;;;;;;;20.68;67.83;100379.59;5056379;28;20179;-67
2022/11/01 04:55:53;;;;;;;7.77;5.07;;;;;;;20.70;67.33;100405.84;5074327;28;20448;-67
2022/11/01 04:58:18;;;;;;;5.33;3.90;;;;;;;20.68;67.49;100401.72;5074362;28;20416;-68
2022/11/01 05:00:44;;;;;;;6.40;4.20;;;;;;;20.68;67.53;100402.53;5074168;28;20183;-68
2022/11/01 05:03:10;;;;;;;6.70;4.70;;;;;;;20.68;67.63;100402.53;5043482;28;20171;-68
2022/11/01 05:05:35;;;;;;;6.23;4.23;;;;;;;20.70;67.37;100405.84;5076139;28;20280;-67
2022/11/01 05:08:02;;;;;;;5.63;4.00;;;;;;;20.68;67.75;100404.59;5094549;28;20174;-67
2022/11/01 05:10:28;;;;;;;5.53;3.90;;;;;;;20.70;67.50;100400.13;5076358;28;20189;-67
2022/11/01 05:12:53;;;;;;;5.40;4.20;;;;;;;20.68;67.44;100396.78;5050789;28;20433;-67
2022/11/01 05:15:18;;;;;;;7.20;4.20;;;;;;;20.67;67.76;100411.56;5055572;28;20203;-68
2022/11/01 05:17:44;;;;;;;6.93;4.20;;;;;;;20.68;67.52;100414.00;5056144;28;20194;-67
2022/11/01 05:20:10;;;;;;;5.77;4.43;;;;;;;20.67;67.59;100432.44;5073802;28;20164;-67
2022/11/01 05:22:35;;;;;;;6.93;3.90;;;;;;;20.67;67.45;100438.19;5055961;28;20217;-68
2022/11/01 05:25:00;;;;;;;5.77;4.07;;;;;;;20.67;67.94;100441.06;5055951;28;20172;-68
2022/11/01 05:27:26;;;;;;;6.37;4.07;;;;;;;20.68;67.88;100436.16;5073878;28;20166;-68
2022/11/01 05:29:51;;;;;;;6.20;4.33;;;;;;;20.67;67.51;100423.84;5039162;28;20183;-67
2022/11/01 05:32:17;;;;;;;4.97;3.70;;;;;;;20.65;67.56;100437.75;5055926;28;20175;-68
2022/11/01 05:34:42;;;;;;;5.93;4.10;;;;;;;20.67;67.70;100440.25;5039151;28;20159;-68
2022/11/01 05:37:09;;;;;;;6.00;4.17;;;;;;;20.66;67.67;100427.94;5073732;28;20203;-68
2022/11/01 05:39:34;;;;;;;6.37;4.13;;;;;;;20.66;67.51;100439.41;5055580;28;20183;-67
2022/11/01 05:42:00;;;;;;;5.97;4.00;;;;;;;20.66;67.82;100445.16;5055693;28;20417;-67
2022/11/01 05:44:25;;;;;;;6.03;4.50;;;;;;;20.65;67.77;100443.50;5038233;28;20168;-68
2022/11/01 05:46:51;;;;;;;5.80;4.17;;;;;;;20.66;67.74;100444.31;5054926;28;20171;-68
2022/11/01 05:49:16;;;;;;;5.83;3.83;;;;;;;20.67;67.80;100445.97;5072422;28;20176;-67
2022/11/01 05:51:41;;;;;;;5.77;3.70;;;;;;;20.67;67.86;100446.78;5072543;28;20284;-68
2022/11/01 05:54:07;;;;;;;6.07;4.23;;;;;;;20.66;67.43;100432.84;5054496;28;20179;-68
2022/11/01 05:56:32;;;;;;;7.30;3.50;;;;;;;20.65;67.63;100446.38;5053760;28;20203;-68
2022/11/01 05:58:58;;;;;;;5.40;3.70;;;;;;;20.67;67.82;100440.25;5054250;28;20171;-68
2022/11/01 06:01:23;;;;;;;5.30;3.73;;;;;;;20.67;67.91;100452.53;5072286;28;20179;-67
2022/11/01 06:03:49;;;;;;;5.23;3.97;;;;;;;20.65;67.66;100445.53;5058953;28;20202;-67
2022/11/01 06:06:14;;;;;;;4.53;3.50;;;;;;;20.66;67.68;100435.69;5054355;28;20198;-68
2022/11/01 06:08:40;;;;;;;5.00;3.70;;;;;;;20.68;67.93;100441.91;5054067;28;20190;-67
2022/11/01 06:11:05;;;;;;;6.17;4.50;;;;;;;20.67;67.55;100443.94;5072205;28;20183;-67
2022/11/01 06:13:31;;;;;;;5.53;4.27;;;;;;;20.64;67.89;100441.84;5073152;28;20258;-68
2022/11/01 06:16:00;;;;;;;5.30;3.60;;;;;;;20.65;67.46;100440.63;5055269;28;20612;-67
2022/11/01 06:18:26;;;;;;;4.53;3.50;;;;;;;20.65;67.88;100446.38;5071400;28;20175;-67
2022/11/01 06:20:51;;;;;;;7.00;3.93;;;;;;;20.65;67.58;100452.09;5041851;28;20500;-67
2022/11/01 06:23:17;;;;;;;5.70;3.97;;;;;;;20.66;67.93;100450.88;5052245;28;20167;-67
2022/11/01 06:25:42;;;;;;;5.73;4.10;;;;;;;20.66;67.73;100456.63;5051836;28;20228;-68
2022/11/01 06:28:08;;;;;;;4.50;3.50;;;;;;;20.65;67.61;100465.63;5031990;28;20242;-68
2022/11/01 06:30:33;;;;;;;4.67;3.33;;;;;;;20.64;67.81;100464.81;5050791;28;20174;-67
2022/11/01 06:33:02;;;;;;;4.47;3.47;;;;;;;20.65;67.91;100477.09;5052972;28;20160;-68
2022/11/01 06:35:27;;;;;;;5.40;4.00;;;;;;;20.65;67.78;100475.06;5018866;28;20207;-68
2022/11/01 06:37:53;;;;;;;5.20;3.80;;;;;;;20.67;67.60;100484.09;5034763;28;20499;-67
2022/11/01 06:40:19;;;;;;;4.50;3.07;;;;;;;20.65;67.49;100483.66;5052621;28;20184;-67
2022/11/01 06:42:44;;;;;;;6.03;4.10;;;;;;;20.65;67.71;100482.81;5035220;28;20187;-68
2022/11/01 06:45:10;;;;;;;5.20;3.30;;;;;;;20.64;67.54;100487.75;5018347;28;20180;-68
2022/11/01 06:47:35;;;;;;;4.70;3.50;;;;;;;20.67;68.03;100491.88;5020549;28;20179;-68
2022/11/01 06:50:00;;;;;;;6.20;4.10;;;;;;;20.65;67.84;100492.28;5038147;28;20183;-68
2022/11/01 06:52:26;;;;;;;4.43;3.10;;;;;;;20.65;67.69;100500.03;5054396;28;20234;-68
2022/11/01 06:54:51;;;;;;;4.43;3.03;;;;;;;20.64;67.74;100492.66;5072858;28;20167;-68
2022/11/01 06:57:17;;;;;;;4.40;3.60;;;;;;;20.65;67.65;100482.81;5054432;28;20203;-68
2022/11/01 06:59:42;;;;;;;5.23;4.03;;;;;;;20.63;67.39;100485.28;5054448;28;20701;-68
2022/11/01 07:02:08;;;;;;;5.07;3.60;;;;;;;20.65;67.66;100488.56;5037928;28;20187;-68
2022/11/01 07:04:35;;;;;;;6.00;3.90;;;;;;;20.66;67.72;100496.78;5087617;28;20289;-68
2022/11/01 07:07:01;;;;;;;5.03;3.70;;;;;;;20.65;67.64;100495.13;5056414;28;20882;-68
2022/11/01 07:09:26;;;;;;;5.43;3.87;;;;;;;20.65;67.86;100506.63;5033048;28;20464;-68
2022/11/01 07:11:52;;;;;;;5.50;3.50;;;;;;;20.63;67.75;100520.50;5032871;28;20198;-68
2022/11/01 07:14:17;;;;;;;5.90;3.80;;;;;;;20.62;67.89;100518.06;5050672;28;20172;-68
2022/11/01 07:16:43;;;;;;;4.43;3.47;;;;;;;20.64;68.00;100529.94;5032730;28;20198;-68
2022/11/01 07:19:08;;;;;;;4.03;3.47;;;;;;;20.64;67.98;100539.41;5052215;28;20187;-68
2022/11/01 07:21:34;;;;;;;5.50;3.70;;;;;;;20.62;67.58;100535.28;5071187;28;20175;-68
2022/11/01 07:23:59;;;;;;;5.60;3.77;;;;;;;20.63;67.55;100529.13;5067718;28;20202;-68
2022/11/01 07:26:25;;;;;;;4.67;3.50;;;;;;;20.63;67.52;100540.59;5034253;28;20630;-68
2022/11/01 07:28:50;;;;;;;4.63;3.23;;;;;;;20.63;68.11;100554.13;5046497;28;20222;-68
2022/11/01 07:31:15;;;;;;;5.87;3.93;;;;;;;20.63;67.78;100554.13;5070460;28;20195;-68
2022/11/01 07:33:41;;;;;;;5.33;3.70;;;;;;;20.63;68.09;100563.53;5028317;28;20255;-68
2022/11/01 07:36:07;;;;;;;6.40;4.10;;;;;;;20.64;68.03;100555.78;5037880;28;20203;-68
2022/11/01 07:38:32;;;;;;;5.23;3.80;;;;;;;20.65;67.74;100561.13;5051227;28;20195;-68
2022/11/01 07:40:58;;;;;;;5.27;3.00;;;;;;;20.64;67.74;100565.22;5039389;28;20244;-68
2022/11/01 07:43:23;;;;;;;5.20;3.60;;;;;;;20.64;67.49;100575.84;5038163;28;20192;-68
2022/11/01 07:45:49;;;;;;;4.30;3.10;;;;;;;20.65;67.84;100581.22;5058160;28;20172;-68
2022/11/01 07:48:16;;;;;;;5.00;3.63;;;;;;;20.64;67.48;100575.84;5036604;28;20187;-68
2022/11/01 07:50:41;;;;;;;4.30;3.57;;;;;;;20.64;68.14;100585.31;5044273;28;20232;-68
2022/11/01 07:53:10;;;;;;;3.80;3.10;;;;;;;20.64;67.73;100585.31;5019344;28;20439;-68
2022/11/01 07:55:35;;;;;;;4.73;3.60;;;;;;;20.64;67.40;100582.44;5047656;28;20207;-68
2022/11/01 07:58:01;;;;;;;4.53;3.17;;;;;;;20.64;67.77;100591.03;5031597;28;20411;-68
2022/11/01 08:00:27;;;;;;;4.30;3.37;;;;;;;20.63;67.62;100595.09;5039465;28;20652;-68
2022/11/01 08:02:58;;;;;;;5.23;3.33;;;;;;;20.65;67.84;100592.69;5020478;28;20283;-68
2022/11/01 08:05:24;;;;;;;4.37;3.40;;;;;;;20.66;67.68;100593.50;5033743;28;20208;-68
2022/11/01 08:07:49;;;;;;;4.53;3.40;;;;;;;20.64;67.57;100595.94;5032134;28;20462;-68
2022/11/01 08:10:15;;;;;;;4.73;3.07;;;;;;;20.66;67.46;100594.34;5010025;28;20195;-68
2022/11/01 08:12:40;;;;;;;4.40;3.40;;;;;;;20.66;67.51;100594.34;5037401;28;20187;-68
2022/11/01 08:15:06;;;;;;;4.03;2.83;;;;;;;20.65;67.82;100595.56;5029070;28;20541;-68
2022/11/01 08:17:32;;;;;;;3.80;2.90;;;;;;;20.67;67.82;100598.03;5030305;28;20179;-68
2022/11/01 08:19:58;;;;;;;4.80;3.23;;;;;;;20.64;67.46;100598.81;5013899;28;20430;-68
2022/11/01 08:22:23;;;;;;;4.43;3.20;;;;;;;20.63;67.59;100600.03;5027101;28;20805;-68
2022/11/01 08:24:49;;;;;;;4.30;3.03;;;;;;;20.63;67.45;100600.84;5032327;28;20861;-68
2022/11/01 08:27:14;;;;;;;4.60;3.40;;;;;;;20.65;67.84;100604.16;5034422;28;20636;-68
2022/11/01 08:29:39;;;;;;;3.67;2.63;;;;;;;20.64;67.48;100611.13;5019030;28;20192;-68
2022/11/01 08:32:05;;;;;;;4.37;3.20;;;;;;;20.64;67.93;100608.25;5032256;28;20191;-68
2022/11/01 08:34:34;;;;;;;4.70;3.43;;;;;;;20.65;67.71;100607.03;5039276;28;20188;-68
2022/11/01 08:36:59;;;;;;;5.10;3.33;;;;;;;20.64;67.74;100614.00;5033422;28;20203;-68
2022/11/01 08:39:25;;;;;;;4.27;3.00;;;;;;;20.65;67.58;100626.28;5020876;28;20461;-68
2022/11/01 08:41:50;;;;;;;4.20;2.80;;;;;;;20.64;67.49;100616.88;5035346;28;20192;-69
2022/11/01 08:44:19;;;;;;;4.40;3.20;;;;;;;20.66;67.94;100617.28;5035322;28;20223;-68
2022/11/01 08:46:45;;;;;;;5.97;3.77;;;;;;;20.65;67.91;100615.63;5030331;28;20666;-68
2022/11/01 08:49:13;;;;;;;3.63;3.07;;;;;;;20.65;67.64;100617.66;5022526;28;20438;-69
2022/11/01 08:51:39;;;;;;;4.77;3.27;;;;;;;20.66;67.56;100623.03;5033945;28;20220;-68
2022/11/01 08:54:05;;;;;;;4.17;2.90;;;;;;;20.66;67.72;100627.94;5031110;28;20945;-69
2022/11/01 08:56:30;;;;;;;4.13;3.30;;;;;;;20.66;67.47;100625.91;5028361;28;20660;-69
2022/11/01 08:58:56;;;;;;;4.17;3.20;;;;;;;20.66;67.63;100627.94;5033723;28;20528;-68
2022/11/01 09:01:23;;;;;;;5.20;3.50;;;;;;;20.64;67.42;100636.09;5033234;28;20184;-68
2022/11/01 09:03:49;;;;;;;4.37;3.17;;;;;;;20.64;67.93;100638.97;5041068;28;20439;-69
2022/11/01 09:06:14;;;;;;;7.53;3.30;;;;;;;20.66;67.84;100642.28;5031230;28;20880;-68
2022/11/01 09:08:40;;;;;;;4.37;2.90;;;;;;;20.68;67.64;100642.72;5030052;28;20196;-68
2022/11/01 09:11:05;;;;;;;5.67;2.87;;;;;;;20.66;67.62;100650.88;5017061;28;20191;-68
2022/11/01 09:13:32;;;;;;;4.33;3.00;;;;;;;20.66;67.74;100656.63;5036408;28;20180;-68
2022/11/01 09:15:57;;;;;;;3.97;2.87;;;;;;;20.66;67.82;100660.31;5018062;28;20204;-68
2022/11/01 09:18:22;;;;;;;4.27;3.23;;;;;;;20.65;67.59;100661.53;5033852;28;20455;-68
2022/11/01 09:20:55;;;;;;;3.40;2.47;;;;;;;20.65;67.49;100661.53;5037726;28;20179;-68
2022/11/01 09:23:20;;;;;;;3.97;2.70;;;;;;;20.61;67.14;100665.56;5028166;28;20177;-67
2022/11/01 09:25:45;;;;;;;11.03;3.50;;;;;;;20.62;67.48;100670.09;5031411;28;20933;-68
2022/11/01 09:28:11;;;;;;;6.40;2.73;;;;;;;20.53;68.85;100675.28;5029957;28;20180;-68
2022/11/01 09:30:36;;;;;;;12.00;3.30;;;;;;;20.43;68.18;100671.03;5026953;28;20632;-67
2022/11/01 09:33:05;;;;;;;13.93;3.10;;;;;;;20.59;67.56;100668.84;5035616;28;20185;-66
2022/11/01 09:35:31;;;;;;;8.30;3.07;;;;;;;20.65;67.34;100658.66;5017274;28;20384;-66
2022/11/01 09:37:58;;;;;;;14.40;3.83;;;;;;;20.75;67.98;100666.63;5036735;28;20426;-65
2022/11/01 09:40:23;;;;;;;8.70;2.50;;;;;;;20.79;67.40;100666.66;5037081;28;20180;-66
2022/11/01 09:42:49;;;;;;;10.80;3.00;;;;;;;20.86;67.84;100672.50;5002282;28;20488;-66
2022/11/01 09:45:22;;;;;;;10.00;2.70;;;;;;;20.86;67.49;100673.34;5035866;28;20180;-66
2022/11/01 09:47:51;;;;;;;7.07;2.87;;;;;;;20.81;67.35;100670.81;5037882;28;20270;-66
2022/11/01 09:50:28;;;;;;;6.10;2.73;;;;;;;20.86;67.84;100681.09;5028467;28;20441;-65
2022/11/01 09:52:54;;;;;;;8.93;2.97;;;;;;;20.89;67.91;100680.34;5035226;28;20945;-66
2022/11/01 09:55:37;;;;;;;3.97;2.33;;;;;;;20.86;67.93;100686.84;5033411;28;20434;-66
2022/11/01 09:58:28;;;;;;;4.93;2.30;;;;;;;20.88;67.43;100699.59;5036867;28;20674;-67
2022/11/01 10:01:09;;;;;;;8.17;3.10;;;;;;;20.89;67.76;100698.44;5003029;28;20443;-67
2022/11/01 10:03:56;;;;;;;11.00;2.60;;;;;;;20.90;67.14;100711.56;5049308;28;20429;-67
2022/11/01 10:06:26;;;;;;;4.83;2.30;;;;;;;20.84;67.08;100709.38;5036483;28;20897;-66
2022/11/01 10:09:20;;;;;;;7.80;2.77;;;;;;;20.91;67.14;100700.88;5027367;28;20431;-66
2022/11/01 10:11:51;;;;;;;7.97;2.20;;;;;;;20.88;66.79;100704.53;5034094;28;20403;-66
2022/11/01 10:14:29;;;;;;;8.10;2.23;;;;;;;20.92;66.17;100722.66;5050010;28;20437;-67
2022/11/01 10:17:10;;;;;;;10.10;2.23;;;;;;;20.89;66.33;100712.78;5040177;28;20466;-66
2022/11/01 10:19:36;;;;;;;10.47;2.40;;;;;;;20.91;66.79;100721.81;5040757;28;20853;-67
2022/11/01 10:22:09;;;;;;;8.47;2.47;;;;;;;20.98;66.88;100726.84;5038920;28;20442;-66
2022/11/01 10:24:50;;;;;;;11.60;3.60;;;;;;;21.17;66.80;100730.41;5046042;28;20230;-67
2022/11/01 10:27:25;;;;;;;8.13;2.60;;;;;;;21.21;66.23;100718.97;5043580;28;20428;-67
2022/11/01 10:29:56;;;;;;;5.60;2.63;;;;;;;21.12;65.22;100721.31;5038431;28;20415;-66
2022/11/01 10:32:32;;;;;;;5.90;2.13;;;;;;;21.02;65.19;100734.28;5035664;28;20438;-67
2022/11/01 10:35:13;;;;;;;6.90;2.30;;;;;;;20.95;65.31;100727.63;5031288;28;21336;-67
2022/11/01 10:37:41;;;;;;;6.10;2.30;;;;;;;20.95;65.09;100719.84;5041410;28;20434;-67
2022/11/01 10:40:13;;;;;;;6.93;2.50;;;;;;;20.90;65.21;100720.19;5037077;28;20422;-66
2022/11/01 10:42:39;;;;;;;8.73;2.00;;;;;;;20.91;64.83;100726.72;5033485;28;20804;-66
2022/11/01 10:45:10;;;;;;;7.33;2.30;;;;;;;20.90;64.16;100737.41;5033128;28;20425;-66
2022/11/01 10:47:36;;;;;;;10.63;2.30;;;;;;;20.89;63.82;100747.22;5036825;28;20701;-68
2022/11/01 10:50:09;;;;;;;6.40;2.17;;;;;;;20.92;64.14;100737.81;5036632;28;20438;-67
2022/11/01 10:53:00;;;;;;;5.93;2.00;;;;;;;20.91;63.50;100738.22;5025731;28;20588;-65
2022/11/01 10:55:33;;;;;;;6.83;2.23;;;;;;;20.88;63.66;100733.22;5036352;28;20502;-67
2022/11/01 10:58:04;;;;;;;6.17;1.90;;;;;;;20.87;63.75;100732.38;5023568;28;20430;-66
2022/11/01 11:00:29;;;;;;;6.87;1.90;;;;;;;20.85;63.65;100729.09;5037392;28;20487;-67
2022/11/01 11:02:57;;;;;;;8.53;2.23;;;;;;;20.87;63.62;100737.31;5041252;28;20809;-66
2022/11/01 11:05:23;;;;;;;7.80;1.40;;;;;;;20.84;63.53;100730.31;5031951;28;20694;-68
2022/11/01 11:07:48;;;;;;;9.37;2.10;;;;;;;20.77;62.99;100735.09;5016279;28;20462;-68
2022/11/01 11:10:25;;;;;;;10.30;1.87;;;;;;;20.75;62.84;100732.63;5028928;28;20449;-68
2022/11/01 11:13:04;;;;;;;6.37;1.90;;;;;;;20.78;62.92;100728.94;5023371;28;20761;-68
2022/11/01 11:15:59;;;;;;;8.27;1.27;;;;;;;20.74;63.20;100741.59;5050195;28;20456;-69
2022/11/01 11:18:30;;;;;;;5.00;1.53;;;;;;;20.69;63.00;100739.06;5024590;28;20439;-68
2022/11/01 11:21:01;;;;;;;10.73;2.03;;;;;;;20.66;63.31;100737.78;5019876;28;20466;-68
2022/11/01 11:23:28;;;;;;;9.05;2.00;;;;;;;20.72;62.95;100733.38;5018614;28;20540;-64
2022/11/01 11:25:59;;;;;;;5.87;1.77;;;;;;;20.79;62.58;100729.78;5029400;28;20168;-65
2022/11/01 11:28:29;;;;;;;6.13;1.93;;;;;;;20.89;61.66;100735.75;5036405;28;20483;-66
2022/11/01 11:30:54;;;;;;;5.53;1.60;;;;;;;20.95;62.26;100741.97;5016653;28;20850;-64
2022/11/01 11:33:20;;;;;;;4.53;1.67;;;;;;;21.02;62.64;100736.34;5034782;28;20434;-65
2022/11/01 11:35:55;;;;;;;6.87;2.10;;;;;;;20.97;62.90;100743.22;5019453;28;20975;-65